Strona główna
METAR-TAF:

METAR-TAF

Lotnisko :

Port lotniczy Mauritius

Mauritius, Mauritius

Szerokość geograficzna: 20-26S, Długość geograficzna: 057-40E, wysokość: 55 m

Aktualna obserwacja pogody

Raport powstał 14 minut temu, godzina 10:00 UTC
Wiatr 13 kt od południe
Temperatura 29°C
Wilgotność 62%
Ciśnienie 1015 hPa
Widzialność 10 km lub więcej
Rozproszone chmury na wysokości 1900 ft

METAR: FIMP 011000Z 17013KT 9999 SCT019 29/21 Q1015

czas: 14:14 (10:14 UTC)

Prognoza

Raport powstał 5 godziny i 14 minut temu, godzina 05:00 UTC
Prognoza ważna od 01 godzina 06 UTC do 02 godzina 12 UTC
Wiatr 10 kt od południowy wschód
Widzialność 10 km lub więcej
Rozproszone chmury na wysokości 1700 ft
Przejściowo
od 01 godzina 18 UTC do 02 godzina 03 UTC
Widzialność: 7000 m
Mało chmury na wysokości 1000 ft
Przerywane chmury na wysokości 1500 ft
słaby przelotny opad deszczu

TAF: FIMP 010500Z 0106/0212 14010KT 9999 SCT017 TEMPO 0118/0203 7000 -SHRA FEW010 BKN015

Obserwacja i prognoza pogody dla ponad 4000 lotnisk (raport METAR i TAF).

Dostępne stacje oznaczono żółtymi i czerwonymi punktami na mapie.

Najedź kursorem aby zobaczyć nazwę stacji.

Kliknij aby zobaczyć obserwacje i prognozy pogody.

Aby zmienić mapę: kliknij na zielony przycisk z czarnym krzyżykiem, aby powiększyć; na zielony przycisk z myślnikiem, aby pomniejszyć; na zielone strzałki, aby przejść do map sąsiednich.


METAR-TAF: